Time;durP1;ratioP1;P1;durP2;ratioP2;P2;SDS_P1;SDS_P2;PMS_P1;PMS_P2;Temp;Humidity;BMP_temperature;BMP_pressure;BME280_temperature;BME280_humidity;BME280_pressure;Samples;Min_cycle;Max_cycle;Signal;HPM_P1;HPM_P2
2023/09/29 00:01:15;;;;;;;;;;;;;;;14.69;76.46;101644.10;106351;1263;61436;-77
2023/09/29 00:03:42;;;;;;;;;;;;;;;14.66;76.48;101642.63;106354;1263;74076;-78
2023/09/29 00:06:09;;;;;;;;;;;;;;;14.65;76.47;101644.19;106088;1265;66282;-78
2023/09/29 00:08:35;;;;;;;;;;;;;;;14.65;76.47;101639.23;106137;1267;72758;-78
2023/09/29 00:11:02;;;;;;;;;;;;;;;14.63;76.49;101635.32;106210;1260;124912;-78
2023/09/29 00:13:29;;;;;;;;;;;;;;;14.62;76.53;101631.05;106314;1262;61240;-79
2023/09/29 00:15:55;;;;;;;;;;;;;;;14.61;76.58;101632.25;106138;1261;125400;-78
2023/09/29 00:18:23;;;;;;;;;;;;;;;14.59;76.52;101632.05;106120;1260;65144;-76
2023/09/29 00:20:49;;;;;;;;;;;;;;;14.57;76.51;101628.46;105708;1259;72711;-77
2023/09/29 00:23:16;;;;;;;;;;;;;;;14.55;76.61;101625.20;105529;1259;125811;-77
2023/09/29 00:25:42;;;;;;;;;;;;;;;14.53;76.59;101622.69;105650;1258;61135;-79
2023/09/29 00:28:10;;;;;;;;;;;;;;;14.51;76.66;101624.58;105598;1262;125376;-77
2023/09/29 00:30:40;;;;;;;;;;;;;;;14.48;76.62;101625.77;105756;1264;66300;-80
2023/09/29 00:33:06;;;;;;;;;;;;;;;14.45;76.59;101624.63;105597;1265;72524;-79
2023/09/29 00:35:33;;;;;;;;;;;;;;;14.39;76.55;101618.66;105631;1266;124759;-78
2023/09/29 00:38:00;;;;;;;;;;;;;;;14.35;76.53;101621.92;105668;1264;61253;-78
2023/09/29 00:40:27;;;;;;;;;;;;;;;14.31;76.61;101620.58;106288;1263;124965;-78
2023/09/29 00:42:54;;;;;;;;;;;;;;;14.27;76.58;101627.38;106223;1261;66432;-78
2023/09/29 00:45:23;;;;;;;;;;;;;;;14.22;76.69;101623.02;106241;1261;70875;-80
2023/09/29 00:47:50;;;;;;;;;;;;;;;14.15;76.62;101625.16;107943;1263;124741;-79
2023/09/29 00:50:20;;;;;;;;;;;;;;;14.11;76.58;101623.46;106108;1263;61136;-80
2023/09/29 00:52:47;;;;;;;;;;;;;;;14.06;76.64;101628.11;105967;1266;124969;-79
2023/09/29 00:55:14;;;;;;;;;;;;;;;14.04;76.66;101628.41;106087;1261;66276;-79
2023/09/29 00:57:41;;;;;;;;;;;;;;;14.00;76.79;101627.78;106270;1264;72742;-79
2023/09/29 01:00:21;;;;;;;;;;;;;;;13.98;76.86;101629.52;106211;1263;61309;-79
2023/09/29 01:02:48;;;;;;;;;;;;;;;13.97;76.93;101624.19;106101;1259;59779;-81
2023/09/29 01:05:15;;;;;;;;;;;;;;;13.95;77.16;101620.77;106075;1265;124959;-81
2023/09/29 01:07:43;;;;;;;;;;;;;;;13.93;77.24;101619.49;106185;1259;61261;-82
2023/09/29 01:10:13;;;;;;;;;;;;;;;13.92;77.17;101613.64;106193;1265;125404;-80
2023/09/29 01:12:40;;;;;;;;;;;;;;;13.91;77.38;101613.45;107415;1263;61237;-80
2023/09/29 01:15:08;;;;;;;;;;;;;;;13.90;77.40;101612.36;106192;1263;61307;-80
2023/09/29 01:17:35;;;;;;;;;;;;;;;13.87;77.33;101611.95;106102;1259;124787;-81
2023/09/29 01:20:05;;;;;;;;;;;;;;;13.84;77.30;101615.21;106144;1259;66312;-82
2023/09/29 01:22:33;;;;;;;;;;;;;;;13.78;77.19;101624.41;106176;1261;124793;-82
2023/09/29 01:25:00;;;;;;;;;;;;;;;13.70;77.11;101625.08;106279;1259;61268;-81
2023/09/29 01:27:27;;;;;;;;;;;;;;;13.63;77.23;101620.67;106323;1263;61247;-81
2023/09/29 01:29:53;;;;;;;;;;;;;;;13.55;77.16;101618.16;106136;1263;124425;-81
2023/09/29 01:32:20;;;;;;;;;;;;;;;13.50;77.28;101619.26;106244;1261;64948;-79
2023/09/29 01:34:46;;;;;;;;;;;;;;;13.43;77.26;101614.34;106179;1263;124231;-80
2023/09/29 01:37:13;;;;;;;;;;;;;;;13.38;77.38;101616.13;106079;1261;59378;-81
2023/09/29 01:39:40;;;;;;;;;;;;;;;13.32;77.54;101613.83;106180;1261;59827;-80
2023/09/29 01:42:07;;;;;;;;;;;;;;;13.27;77.69;101608.55;107063;1263;124031;-80
2023/09/29 01:44:34;;;;;;;;;;;;;;;13.24;77.83;101608.66;106143;1263;64915;-81
2023/09/29 01:47:00;;;;;;;;;;;;;;;13.22;77.93;101610.54;106214;1265;124052;-81
2023/09/29 01:49:27;;;;;;;;;;;;;;;13.20;78.10;101611.02;106168;1265;61265;-81
2023/09/29 01:51:54;;;;;;;;;;;;;;;13.17;78.34;101609.16;105964;1263;124558;-81
2023/09/29 01:54:20;;;;;;;;;;;;;;;13.17;78.33;101605.27;106324;1261;74511;-82
2023/09/29 01:56:47;;;;;;;;;;;;;;;13.16;78.43;101605.95;106355;1261;64846;-81
2023/09/29 01:59:13;;;;;;;;;;;;;;;13.16;78.50;101603.83;106262;1273;124497;-81
2023/09/29 02:01:40;;;;;;;;;;;;;;;13.15;78.52;101605.39;106147;1261;61456;-81
2023/09/29 02:04:07;;;;;;;;;;;;;;;13.14;78.58;101611.19;106034;1266;124402;-80
2023/09/29 02:06:34;;;;;;;;;;;;;;;13.13;78.69;101615.05;106167;1262;74497;-81
2023/09/29 02:09:00;;;;;;;;;;;;;;;13.13;78.65;101616.63;106135;1264;66251;-81
2023/09/29 02:11:28;;;;;;;;;;;;;;;13.11;78.56;101616.05;106028;1261;124292;-81
2023/09/29 02:13:54;;;;;;;;;;;;;;;13.09;78.59;101613.88;106154;1264;61323;-81
2023/09/29 02:16:21;;;;;;;;;;;;;;;13.07;78.62;101616.10;106106;1264;125026;-81
2023/09/29 02:18:47;;;;;;;;;;;;;;;13.06;78.70;101619.05;106170;1267;74702;-81
2023/09/29 02:21:23;;;;;;;;;;;;;;;13.05;78.75;101620.09;106119;1264;61154;-78
2023/09/29 02:23:49;;;;;;;;;;;;;;;13.03;78.80;101621.11;105918;1260;125492;-78
2023/09/29 02:26:16;;;;;;;;;;;;;;;13.02;78.84;101626.88;106034;1266;61260;-79
2023/09/29 02:28:42;;;;;;;;;;;;;;;13.01;78.80;101627.75;106046;1264;124918;-79
2023/09/29 02:31:12;;;;;;;;;;;;;;;13.00;78.83;101626.64;106202;1264;73302;-79
2023/09/29 02:33:40;;;;;;;;;;;;;;;12.99;78.79;101621.52;106290;1260;64727;-78
2023/09/29 02:36:07;;;;;;;;;;;;;;;12.99;78.92;101619.92;106306;1264;125258;-79
2023/09/29 02:38:34;;;;;;;;;;;;;;;13.00;79.03;101622.60;106262;1260;61415;-78
2023/09/29 02:41:00;;;;;;;;;;;;;;;12.98;78.84;101621.48;106203;1261;124929;-78
2023/09/29 02:43:30;;;;;;;;;;;;;;;12.95;78.81;101615.59;106292;1260;74707;-78
2023/09/29 02:45:56;;;;;;;;;;;;;;;12.94;78.73;101613.95;106063;1265;125718;-77
2023/09/29 02:48:23;;;;;;;;;;;;;;;12.90;78.76;101611.56;106152;1261;72772;-77
2023/09/29 02:50:50;;;;;;;;;;;;;;;12.88;78.73;101612.38;106146;1259;61366;-78
2023/09/29 02:53:16;;;;;;;;;;;;;;;12.85;78.76;101611.41;106054;1260;125003;-79
2023/09/29 02:55:45;;;;;;;;;;;;;;;12.83;78.83;101611.35;106473;1263;74537;-79
2023/09/29 02:58:12;;;;;;;;;;;;;;;12.81;78.86;101607.94;106377;1262;127068;-79
2023/09/29 03:00:41;;;;;;;;;;;;;;;12.78;78.75;101607.52;106233;1260;71450;-79
2023/09/29 03:03:09;;;;;;;;;;;;;;;12.76;78.90;101600.41;106190;1260;59399;-79
2023/09/29 03:05:36;;;;;;;;;;;;;;;12.76;79.03;101597.58;106072;1260;124750;-78
2023/09/29 03:08:03;;;;;;;;;;;;;;;12.75;79.07;101595.63;106270;1260;74746;-78
2023/09/29 03:10:30;;;;;;;;;;;;;;;12.76;79.07;101591.62;106127;1261;125304;-79
2023/09/29 03:12:56;;;;;;;;;;;;;;;12.78;79.22;101591.13;106152;1260;72752;-78
2023/09/29 03:15:23;;;;;;;;;;;;;;;12.79;79.21;101590.63;106299;1259;61938;-78
2023/09/29 03:17:49;;;;;;;;;;;;;;;12.79;79.20;101588.34;106218;1260;125037;-78
2023/09/29 03:20:16;;;;;;;;;;;;;;;12.78;79.06;101584.80;106429;1261;75158;-78
2023/09/29 03:22:43;;;;;;;;;;;;;;;12.77;79.20;101586.70;106199;1260;124739;-77
2023/09/29 03:25:10;;;;;;;;;;;;;;;12.78;79.15;101583.72;106239;1260;72958;-78
2023/09/29 03:27:37;;;;;;;;;;;;;;;12.78;79.12;101585.48;106198;1263;61160;-78
2023/09/29 03:30:08;;;;;;;;;;;;;;;12.77;79.10;101586.34;106103;1261;124955;-77
2023/09/29 03:32:35;;;;;;;;;;;;;;;12.75;79.05;101586.45;106412;1263;72608;-77
2023/09/29 03:35:04;;;;;;;;;;;;;;;12.73;79.03;101586.73;106258;1261;124931;-77
2023/09/29 03:37:36;;;;;;;;;;;;;;;12.72;79.14;101582.30;106292;1261;71730;-78
2023/09/29 03:40:07;;;;;;;;;;;;;;;12.70;79.17;101584.71;106205;1267;125771;-78
2023/09/29 03:42:34;;;;;;;;;;;;;;;12.67;79.12;101584.48;106285;1259;59373;-78
2023/09/29 03:45:05;;;;;;;;;;;;;;;12.68;79.28;101580.96;106223;1263;74488;-78
2023/09/29 03:47:33;;;;;;;;;;;;;;;12.68;79.25;101579.20;106042;1259;124997;-78
2023/09/29 03:49:59;;;;;;;;;;;;;;;12.66;79.29;101571.41;106212;1260;71466;-76
2023/09/29 03:52:26;;;;;;;;;;;;;;;12.66;79.21;101566.13;105893;1261;124960;-83
2023/09/29 03:54:53;;;;;;;;;;;;;;;12.64;79.26;101563.61;106201;1261;61398;-83
2023/09/29 03:57:19;;;;;;;;;;;;;;;12.62;79.18;101564.09;106454;1258;74659;-84
2023/09/29 03:59:46;;;;;;;;;;;;;;;12.61;79.28;101561.42;106267;1260;125297;-83
2023/09/29 04:02:12;;;;;;;;;;;;;;;12.62;79.27;101560.38;106558;1259;72660;-86
2023/09/29 04:04:39;;;;;;;;;;;;;;;12.61;79.13;101562.13;106323;1260;124983;-84
2023/09/29 04:07:06;;;;;;;;;;;;;;;12.59;79.10;101559.77;106398;1260;61370;-83
2023/09/29 04:09:32;;;;;;;;;;;;;;;12.57;79.07;101556.69;106259;1260;75118;-82
2023/09/29 04:11:59;;;;;;;;;;;;;;;12.53;78.95;101559.58;106452;1259;125084;-83
2023/09/29 04:14:25;;;;;;;;;;;;;;;12.50;78.92;101555.60;106489;1258;72717;-82
2023/09/29 04:16:52;;;;;;;;;;;;;;;12.47;78.87;101559.22;106303;1261;125488;-82
2023/09/29 04:19:19;;;;;;;;;;;;;;;12.43;78.82;101561.58;106367;1263;61267;-82
2023/09/29 04:21:46;;;;;;;;;;;;;;;12.41;78.80;101558.52;106257;1260;124969;-81
2023/09/29 04:24:13;;;;;;;;;;;;;;;12.39;78.79;101561.98;106321;1261;66149;-81
2023/09/29 04:26:40;;;;;;;;;;;;;;;12.37;78.66;101559.09;106210;1259;72421;-81
2023/09/29 04:29:06;;;;;;;;;;;;;;;12.35;78.73;101556.56;106242;1261;124805;-81
2023/09/29 04:31:33;;;;;;;;;;;;;;;12.33;78.68;101556.16;106512;1260;61277;-81
2023/09/29 04:34:00;;;;;;;;;;;;;;;12.32;78.64;101558.59;106320;1263;125169;-81
2023/09/29 04:36:27;;;;;;;;;;;;;;;12.31;78.64;101557.32;106189;1262;64122;-82
2023/09/29 04:38:54;;;;;;;;;;;;;;;12.32;78.70;101558.21;106243;1260;61196;-85
2023/09/29 04:41:21;;;;;;;;;;;;;;;12.31;78.49;101558.90;106148;1260;124731;-83
2023/09/29 04:43:47;;;;;;;;;;;;;;;12.32;78.58;101559.63;106394;1260;61395;-84
2023/09/29 04:46:15;;;;;;;;;;;;;;;12.32;78.50;101559.99;106183;1259;125220;-84
2023/09/29 04:48:42;;;;;;;;;;;;;;;12.33;78.54;101556.86;106308;1260;66107;-84
2023/09/29 04:51:08;;;;;;;;;;;;;;;12.33;78.49;101558.46;106195;1260;61191;-85
2023/09/29 04:53:35;;;;;;;;;;;;;;;12.34;78.35;101553.55;106180;1260;124973;-83
2023/09/29 04:56:02;;;;;;;;;;;;;;;12.35;78.36;101554.42;106321;1259;61024;-84
2023/09/29 04:58:29;;;;;;;;;;;;;;;12.36;78.31;101548.69;106261;1259;124803;-82
2023/09/29 05:00:55;;;;;;;;;;;;;;;12.38;78.24;101545.41;106177;1267;66278;-85
2023/09/29 05:03:22;;;;;;;;;;;;;;;12.40;78.24;101538.95;106347;1260;72482;-84
2023/09/29 05:05:48;;;;;;;;;;;;;;;12.43;78.22;101538.34;106023;1259;124790;-82
2023/09/29 05:08:15;;;;;;;;;;;;;;;12.48;78.19;101533.70;106249;1263;61276;-84
2023/09/29 05:10:43;;;;;;;;;;;;;;;12.53;78.24;101531.77;106193;1259;124969;-83
2023/09/29 05:13:10;;;;;;;;;;;;;;;12.59;78.14;101530.70;106610;1258;64958;-82
2023/09/29 05:15:37;;;;;;;;;;;;;;;12.64;78.11;101536.14;106647;1260;61388;-84
2023/09/29 05:18:04;;;;;;;;;;;;;;;12.70;78.05;101539.64;106468;1258;124871;-84
2023/09/29 05:20:31;;;;;;;;;;;;;;;12.74;77.86;101541.36;106572;1258;61229;-83
2023/09/29 05:22:57;;;;;;;;;;;;;;;12.78;77.92;101537.42;106426;1259;125183;-83
2023/09/29 05:25:24;;;;;;;;;;;;;;;12.84;77.90;101534.95;106467;1260;65990;-83
2023/09/29 05:27:55;;;;;;;;;;;;;;;12.93;77.98;101537.32;106440;1261;125513;-84
2023/09/29 05:30:23;;;;;;;;;;;;;;;13.01;77.72;101538.77;106773;1260;61287;-83
2023/09/29 05:32:50;;;;;;;;;;;;;;;13.09;77.82;101537.39;106705;1261;61362;-84
2023/09/29 05:35:16;;;;;;;;;;;;;;;13.17;77.52;101535.67;106718;1263;125256;-84
2023/09/29 05:37:43;;;;;;;;;;;;;;;13.23;77.48;101533.02;106709;1260;64764;-84
2023/09/29 05:40:09;;;;;;;;;;;;;;;13.29;77.44;101539.71;106404;1260;124297;-84
2023/09/29 05:42:36;;;;;;;;;;;;;;;13.37;77.44;101539.42;106537;1260;61129;-84
2023/09/29 05:45:03;;;;;;;;;;;;;;;13.45;77.43;101541.20;106593;1260;61290;-83
2023/09/29 05:47:29;;;;;;;;;;;;;;;13.54;77.40;101537.73;106148;1261;124382;-83
2023/09/29 05:49:56;;;;;;;;;;;;;;;13.63;77.31;101539.53;106438;1260;64804;-83
2023/09/29 05:52:23;;;;;;;;;;;;;;;13.70;77.28;101540.77;106299;1259;124518;-84
2023/09/29 05:54:50;;;;;;;;;;;;;;;13.78;77.38;101538.15;106285;1259;61340;-84
2023/09/29 05:57:16;;;;;;;;;;;;;;;13.88;77.39;101537.69;106414;1258;60244;-84
2023/09/29 05:59:43;;;;;;;;;;;;;;;13.98;77.40;101534.56;106226;1259;124420;-84
2023/09/29 06:02:09;;;;;;;;;;;;;;;14.09;77.35;101533.05;106322;1258;66092;-83
2023/09/29 06:04:36;;;;;;;;;;;;;;;14.17;77.31;101528.13;106542;1260;124076;-84
2023/09/29 06:07:02;;;;;;;;;;;;;;;14.29;77.33;101523.61;106663;1259;61272;-84
2023/09/29 06:09:29;;;;;;;;;;;;;;;14.40;77.24;101521.20;106597;1261;61272;-84
2023/09/29 06:11:56;;;;;;;;;;;;;;;14.49;77.24;101520.70;106452;1265;124772;-84
2023/09/29 06:14:22;;;;;;;;;;;;;;;14.58;77.03;101521.97;106694;1260;64981;-84
2023/09/29 06:16:49;;;;;;;;;;;;;;;14.66;76.98;101525.51;106397;1260;125138;-84
2023/09/29 06:19:15;;;;;;;;;;;;;;;14.74;76.79;101531.50;106367;1259;61158;-84
2023/09/29 06:21:44;;;;;;;;;;;;;;;14.81;76.79;101531.98;106122;1260;124350;-84
2023/09/29 06:24:10;;;;;;;;;;;;;;;14.88;76.66;101532.14;106652;1258;74951;-84
2023/09/29 06:26:37;;;;;;;;;;;;;;;14.97;76.61;101532.13;106361;1263;65139;-84
2023/09/29 06:29:05;;;;;;;;;;;;;;;15.06;76.57;101528.05;106126;1260;124906;-84
2023/09/29 06:31:32;;;;;;;;;;;;;;;15.15;76.47;101529.30;106249;1260;61350;-84
2023/09/29 06:33:59;;;;;;;;;;;;;;;15.25;76.43;101531.42;106311;1263;125140;-84
2023/09/29 06:36:25;;;;;;;;;;;;;;;15.34;76.34;101529.46;106391;1259;74536;-84
2023/09/29 06:38:52;;;;;;;;;;;;;;;15.43;76.15;101526.06;106320;1262;64726;-84
2023/09/29 06:41:18;;;;;;;;;;;;;;;15.53;76.10;101520.05;105955;1261;125486;-84
2023/09/29 06:43:46;;;;;;;;;;;;;;;15.64;76.02;101522.54;106226;1260;61174;-84
2023/09/29 06:46:13;;;;;;;;;;;;;;;15.76;76.13;101523.83;106301;1259;125107;-84
2023/09/29 06:48:40;;;;;;;;;;;;;;;15.88;75.84;101521.20;106243;1259;74459;-85
2023/09/29 06:51:07;;;;;;;;;;;;;;;16.01;75.69;101521.91;106284;1259;65341;-85
2023/09/29 06:53:34;;;;;;;;;;;;;;;16.13;75.58;101524.57;106087;1259;125816;-85
2023/09/29 06:56:01;;;;;;;;;;;;;;;16.26;75.39;101520.34;106247;1259;61340;-84
2023/09/29 06:58:27;;;;;;;;;;;;;;;16.38;75.30;101519.44;106262;1258;124858;-83
2023/09/29 07:00:56;;;;;;;;;;;;;;;16.52;75.17;101521.20;106265;1264;73370;-83
2023/09/29 07:03:23;;;;;;;;;;;;;;;16.64;74.95;101522.60;106251;1259;66114;-83
2023/09/29 07:05:50;;;;;;;;;;;;;;;16.77;74.82;101520.63;106149;1259;124920;-83
2023/09/29 07:08:17;;;;;;;;;;;;;;;16.90;74.71;101517.27;106279;1263;61183;-83
2023/09/29 07:10:45;;;;;;;;;;;;;;;17.03;74.56;101520.96;106185;1259;124733;-83
2023/09/29 07:13:12;;;;;;;;;;;;;;;17.17;74.36;101526.77;106323;1264;74468;-82
2023/09/29 07:15:38;;;;;;;;;;;;;;;17.29;74.14;101528.13;106176;1259;66276;-83
2023/09/29 07:18:10;;;;;;;;;;;;;;;17.41;74.03;101530.38;106222;1260;125090;-85
2023/09/29 07:20:37;;;;;;;;;;;;;;;17.56;73.89;101533.70;106325;1260;61365;-83
2023/09/29 07:23:04;;;;;;;;;;;;;;;17.69;73.59;101533.81;106124;1260;124582;-83
2023/09/29 07:25:31;;;;;;;;;;;;;;;17.81;73.35;101534.81;106128;1262;73404;-83
2023/09/29 07:27:57;;;;;;;;;;;;;;;17.96;73.35;101537.78;106197;1259;125333;-83
2023/09/29 07:30:24;;;;;;;;;;;;;;;18.09;73.12;101537.88;106201;1260;72681;-84
2023/09/29 07:32:50;;;;;;;;;;;;;;;18.23;72.91;101535.83;106223;1264;61353;-83
2023/09/29 07:35:18;;;;;;;;;;;;;;;18.37;72.68;101536.63;106208;1260;124234;-83
2023/09/29 07:37:45;;;;;;;;;;;;;;;18.49;72.49;101537.92;106339;1260;74735;-84
2023/09/29 07:40:13;;;;;;;;;;;;;;;18.63;72.24;101534.98;106280;1259;124417;-83
2023/09/29 07:42:39;;;;;;;;;;;;;;;18.75;72.01;101531.81;106091;1263;71218;-83
2023/09/29 07:45:07;;;;;;;;;;;;;;;18.89;71.90;101524.24;106440;1260;61267;-83
2023/09/29 07:47:33;;;;;;;;;;;;;;;19.01;71.68;101521.09;106236;1263;124235;-83
2023/09/29 07:50:00;;;;;;;;;;;;;;;19.12;71.36;101521.81;106393;1258;61175;-84
2023/09/29 07:52:28;;;;;;;;;;;;;;;19.24;71.14;101524.86;106175;1260;124218;-83
2023/09/29 07:54:55;;;;;;;;;;;;;;;19.36;70.90;101522.92;106371;1260;71170;-83
2023/09/29 07:57:22;;;;;;;;;;;;;;;19.47;70.58;101516.17;106457;1258;61222;-83
2023/09/29 07:59:49;;;;;;;;;;;;;;;19.59;70.34;101517.77;106223;1262;124362;-83
2023/09/29 08:02:15;;;;;;;;;;;;;;;19.69;70.17;101514.21;106230;1263;73624;-84
2023/09/29 08:04:42;;;;;;;;;;;;;;;19.82;69.98;101512.63;106214;1263;124100;-84
2023/09/29 08:07:09;;;;;;;;;;;;;;;19.93;69.57;101507.27;106373;1259;71396;-83
2023/09/29 08:09:36;;;;;;;;;;;;;;;20.04;69.42;101506.54;106145;1259;61479;-85
2023/09/29 08:12:03;;;;;;;;;;;;;;;20.14;69.18;101506.70;106101;1261;123905;-83
2023/09/29 08:14:32;;;;;;;;;;;;;;;20.25;68.98;101508.45;106117;1264;73018;-83
2023/09/29 08:16:59;;;;;;;;;;;;;;;20.35;68.93;101512.52;106281;1260;124969;-84
2023/09/29 08:19:28;;;;;;;;;;;;;;;20.45;68.71;101512.85;106152;1259;71055;-84
2023/09/29 08:21:55;;;;;;;;;;;;;;;20.53;68.34;101516.56;106199;1263;124259;-84
2023/09/29 08:24:22;;;;;;;;;;;;;;;20.59;68.16;101516.00;106447;1263;61151;-83
2023/09/29 08:26:48;;;;;;;;;;;;;;;20.66;67.78;101514.94;106319;1259;74914;-86
2023/09/29 08:29:16;;;;;;;;;;;;;;;20.71;67.64;101509.73;106154;1259;124266;-83
2023/09/29 08:31:46;;;;;;;;;;;;;;;20.76;67.46;101509.17;106285;1258;72690;-84
2023/09/29 08:34:12;;;;;;;;;;;;;;;20.82;67.26;101508.07;106217;1260;124612;-85
2023/09/29 08:36:39;;;;;;;;;;;;;;;20.89;67.11;101509.46;106171;1265;61215;-86
2023/09/29 08:39:06;;;;;;;;;;;;;;;20.94;66.89;101511.40;106243;1262;61275;-85
2023/09/29 08:41:34;;;;;;;;;;;;;;;21.01;66.83;101510.27;105976;1266;125039;-85
2023/09/29 08:44:04;;;;;;;;;;;;;;;21.08;66.67;101508.27;106026;1259;72719;-84
2023/09/29 08:46:32;;;;;;;;;;;;;;;21.17;66.53;101507.33;106168;1259;124947;-84
2023/09/29 08:48:59;;;;;;;;;;;;;;;21.26;66.54;101504.58;106229;1259;61309;-84
2023/09/29 08:51:26;;;;;;;;;;;;;;;21.37;66.32;101502.17;106254;1259;74525;-86
2023/09/29 08:53:54;;;;;;;;;;;;;;;21.46;66.13;101499.98;106263;1259;124090;-85
2023/09/29 08:56:20;;;;;;;;;;;;;;;21.59;66.04;101504.71;106193;1260;71388;-83
2023/09/29 08:58:47;;;;;;;;;;;;;;;21.68;65.76;101503.56;106257;1263;124224;-83
2023/09/29 09:01:13;;;;;;;;;;;;;;;21.77;65.63;101496.86;106175;1260;61287;-84
2023/09/29 09:03:40;;;;;;;;;;;;;;;21.89;65.50;101498.89;106120;1259;74721;-84
2023/09/29 09:06:27;;;;;;;;;;;;;;;22.02;65.46;101489.48;106180;1258;124999;-83
2023/09/29 09:08:54;;;;;;;;;;;;;;;22.16;65.07;101488.60;106447;1258;72755;-84
2023/09/29 09:11:21;;;;;;;;;;;;;;;22.29;64.80;101489.55;106172;1259;125062;-84
2023/09/29 09:14:03;;;;;;;;;;;;;;;22.40;64.58;101490.33;106127;1259;61376;-83
2023/09/29 09:16:31;;;;;;;;;;;;;;;22.52;64.36;101489.45;106138;1259;124110;-84
2023/09/29 09:19:11;;;;;;;;;;;;;;;22.64;64.27;101484.11;106237;1261;209122;-84
2023/09/29 09:21:37;;;;;;;;;;;;;;;22.80;64.03;101481.75;106140;1260;71274;-84
2023/09/29 09:24:23;;;;;;;;;;;;;;;22.95;63.83;101484.23;106259;1264;124103;-84
2023/09/29 09:26:52;;;;;;;;;;;;;;;23.04;63.42;101481.06;106187;1259;61358;-84
2023/09/29 09:29:19;;;;;;;;;;;;;;;23.09;63.23;101475.10;106048;1259;124344;-83
2023/09/29 09:31:47;;;;;;;;;;;;;;;23.12;62.94;101475.05;106319;1258;65030;-83
2023/09/29 09:34:13;;;;;;;;;;;;;;;23.17;62.83;101472.83;106046;1261;124332;-86
2023/09/29 09:36:50;;;;;;;;;;;;;;;23.20;62.58;101474.21;106352;1259;61144;-84
2023/09/29 09:39:17;;;;;;;;;;;;;;;23.26;62.52;101469.28;106347;1259;61200;-84
2023/09/29 09:41:45;;;;;;;;;;;;;;;23.31;62.38;101467.23;106164;1259;124230;-84
2023/09/29 09:44:12;;;;;;;;;;;;;;;23.35;62.23;101466.42;106298;1258;65112;-84
2023/09/29 09:46:39;;;;;;;;;;;;;;;23.42;62.06;101458.98;106198;1259;124086;-85
2023/09/29 09:49:10;;;;;;;;;;;;;;;23.47;61.91;101459.07;106166;1263;61256;-85
2023/09/29 09:51:39;;;;;;;;;;;;;;;23.54;61.72;101458.95;106307;1260;61180;-85
2023/09/29 09:54:08;;;;;;;;;;;;;;;23.59;61.44;101458.87;106138;1259;123099;-83
2023/09/29 09:56:38;;;;;;;;;;;;;;;23.64;61.22;101456.45;106167;1260;65006;-83
2023/09/29 09:59:05;;;;;;;;;;;;;;;23.66;60.99;101454.27;106013;1262;124476;-83
2023/09/29 10:01:32;;;;;;;;;;;;;;;23.69;60.96;101446.50;106257;1265;61302;-84
2023/09/29 10:04:02;;;;;;;;;;;;;;;23.72;60.65;101444.48;106043;1261;124253;-83
2023/09/29 10:06:30;;;;;;;;;;;;;;;23.77;60.69;101442.23;106133;1259;75224;-84
2023/09/29 10:09:08;;;;;;;;;;;;;;;23.81;60.23;101440.39;106323;1259;65680;-83
2023/09/29 10:11:35;;;;;;;;;;;;;;;23.87;60.39;101441.17;106029;1260;124319;-84
2023/09/29 10:14:07;;;;;;;;;;;;;;;23.96;60.13;101435.44;106224;1259;61391;-85
2023/09/29 10:16:38;;;;;;;;;;;;;;;24.06;60.07;101433.63;106276;1259;124448;-84
2023/09/29 10:19:12;;;;;;;;;;;;;;;24.15;59.93;101431.83;106004;1260;73678;-84
2023/09/29 10:21:45;;;;;;;;;;;;;;;24.22;59.77;101429.89;106308;1263;65274;-83
2023/09/29 10:24:25;;;;;;;;;;;;;;;24.32;59.57;101425.02;106148;1259;72398;-84
2023/09/29 10:26:52;;;;;;;;;;;;;;;24.41;59.40;101429.13;106351;1264;61496;-84
2023/09/29 10:29:19;;;;;;;;;;;;;;;24.49;59.03;101427.53;106100;1260;124144;-84
2023/09/29 10:31:46;;;;;;;;;;;;;;;24.55;58.88;101427.44;106149;1261;74660;-86
2023/09/29 10:34:22;;;;;;;;;;;;;;;24.61;58.71;101424.96;106071;1259;124813;-85
2023/09/29 10:36:53;;;;;;;;;;;;;;;24.70;58.73;101427.81;106190;1259;73928;-83
2023/09/29 10:39:26;;;;;;;;;;;;;;;24.78;58.42;101421.52;106166;1260;59180;-84
2023/09/29 10:42:14;;;;;;;;;;;;;;;24.86;58.11;101419.17;106221;1258;124285;-83
2023/09/29 10:44:44;;;;;;;;;;;;;;;24.95;57.98;101414.84;106140;1259;73224;-83
2023/09/29 10:47:14;;;;;;;;;;;;;;;25.00;57.45;101418.48;105908;1259;124459;-85
2023/09/29 10:49:46;;;;;;;;;;;;;;;25.04;57.46;101417.50;106248;1259;72743;-85
2023/09/29 10:52:19;;;;;;;;;;;;;;;25.07;57.28;101415.63;106241;1258;124244;-84
2023/09/29 10:54:45;;;;;;;;;;;;;;;25.10;57.07;101409.64;106226;1260;61146;-84
2023/09/29 10:57:12;;;;;;;;;;;;;;;25.12;56.83;101408.86;106281;1259;74635;-84
2023/09/29 10:59:48;;;;;;;;;;;;;;;25.14;56.72;101406.64;106284;1259;124231;-83
2023/09/29 11:02:15;;;;;;;;;;;;;;;25.18;56.56;101402.60;106313;1259;72739;-84
2023/09/29 11:04:46;;;;;;;;;;;;;;;25.19;56.29;101398.63;106114;1259;124135;-84
2023/09/29 11:07:17;;;;;;;;;;;;;;;25.21;56.30;101401.41;106122;1259;61287;-84
2023/09/29 11:09:43;;;;;;;;;;;;;;;25.24;56.12;101393.12;106140;1259;74901;-85
2023/09/29 11:12:19;;;;;;;;;;;;;;;25.31;56.13;101396.18;106422;1260;65863;-84
2023/09/29 11:14:45;;;;;;;;;;;;;;;25.37;55.98;101390.45;106332;1258;64184;-86
2023/09/29 11:17:12;;;;;;;;;;;;;;;25.44;55.85;101389.39;106198;1258;124233;-86
2023/09/29 11:19:38;;;;;;;;;;;;;;;25.49;55.64;101387.80;106346;1263;61250;-84
2023/09/29 11:22:06;;;;;;;;;;;;;;;25.52;55.38;101382.16;106321;1258;124389;-85
2023/09/29 11:24:43;;;;;;;;;;;;;;;25.53;55.21;101380.69;106226;1259;64797;-85
2023/09/29 11:27:11;;;;;;;;;;;;;;;25.55;55.17;101376.50;106196;1259;72728;-85
2023/09/29 11:29:38;;;;;;;;;;;;;;;25.57;54.85;101375.71;106125;1259;124974;-84
2023/09/29 11:32:04;;;;;;;;;;;;;;;25.61;54.80;101375.80;106180;1260;61196;-85
2023/09/29 11:34:31;;;;;;;;;;;;;;;25.64;54.63;101375.55;106118;1265;124199;-85
2023/09/29 11:36:58;;;;;;;;;;;;;;;25.67;54.56;101377.98;106315;1260;66351;-84
2023/09/29 11:39:25;;;;;;;;;;;;;;;25.71;54.43;101377.66;106349;1259;72833;-84
2023/09/29 11:41:51;;;;;;;;;;;;;;;25.77;54.31;101378.02;106082;1259;124224;-84
2023/09/29 11:44:18;;;;;;;;;;;;;;;25.84;54.20;101374.26;106307;1261;61386;-84
2023/09/29 11:46:45;;;;;;;;;;;;;;;25.90;54.00;101372.29;106174;1259;124316;-85
2023/09/29 11:49:11;;;;;;;;;;;;;;;25.98;53.80;101367.23;106194;1260;66596;-84
2023/09/29 11:51:38;;;;;;;;;;;;;;;26.08;53.76;101367.29;106274;1259;72718;-82
2023/09/29 11:54:05;;;;;;;;;;;;;;;26.18;53.35;101368.77;106042;1265;124018;-85
2023/09/29 11:56:32;;;;;;;;;;;;;;;26.26;53.13;101367.65;106264;1260;61434;-83
2023/09/29 11:58:58;;;;;;;;;;;;;;;26.33;52.82;101368.70;106119;1259;124253;-84
2023/09/29 12:01:28;;;;;;;;;;;;;;;26.37;52.56;101364.43;106229;1263;61380;-84
2023/09/29 12:03:57;;;;;;;;;;;;;;;26.41;52.37;101358.91;105883;1267;124338;-85
2023/09/29 12:06:24;;;;;;;;;;;;;;;26.45;52.38;101360.41;106110;1259;61372;-84
2023/09/29 12:08:51;;;;;;;;;;;;;;;26.46;52.28;101358.94;106144;1263;61306;-84
2023/09/29 12:11:20;;;;;;;;;;;;;;;26.47;52.15;101357.27;106039;1261;124044;-84
2023/09/29 12:13:47;;;;;;;;;;;;;;;26.46;52.05;101356.39;106307;1264;61202;-84
2023/09/29 12:16:15;;;;;;;;;;;;;;;26.48;52.04;101353.46;106048;1260;124235;-84
2023/09/29 12:18:42;;;;;;;;;;;;;;;26.48;51.94;101356.71;106211;1263;61378;-84
2023/09/29 12:21:09;;;;;;;;;;;;;;;26.50;51.90;101353.02;106132;1259;61268;-84
2023/09/29 12:23:35;;;;;;;;;;;;;;;26.52;51.81;101354.24;106123;1261;124128;-84
2023/09/29 12:26:02;;;;;;;;;;;;;;;26.52;51.71;101356.92;106004;1261;61324;-84